Time;durP1;ratioP1;P1;durP2;ratioP2;P2;SDS_P1;SDS_P2;PMS_P1;PMS_P2;Temp;Humidity;BMP_temperature;BMP_pressure;BME280_temperature;BME280_humidity;BME280_pressure;Samples;Min_cycle;Max_cycle;Signal;HPM_P1;HPM_P2
2021/01/03 00:01:58;;;;;;;34.10;16.20;;;3.00;95.80;;;;;;5053819;28;20547;-75
2021/01/03 00:04:24;;;;;;;26.55;15.02;;;3.00;95.90;;;;;;5054142;28;20116;-76
2021/01/03 00:06:51;;;;;;;32.42;14.98;;;3.00;95.80;;;;;;5053798;28;20112;-75
2021/01/03 00:09:17;;;;;;;27.70;15.43;;;3.00;95.80;;;;;;5053754;28;20049;-75
2021/01/03 00:11:42;;;;;;;32.67;15.90;;;3.10;95.80;;;;;;5054213;28;20108;-76
2021/01/03 00:14:08;;;;;;;30.73;16.02;;;3.10;96.00;;;;;;5054145;28;20115;-75
2021/01/03 00:16:34;;;;;;;32.38;15.98;;;3.10;95.80;;;;;;5068847;28;20024;-76
2021/01/03 00:18:59;;;;;;;29.60;15.45;;;3.10;95.90;;;;;;5073023;28;20480;-76
2021/01/03 00:21:24;;;;;;;34.72;16.42;;;3.10;95.90;;;;;;5057363;28;20048;-76
2021/01/03 00:23:50;;;;;;;32.95;15.80;;;3.10;95.80;;;;;;5054011;28;20017;-76
2021/01/03 00:26:15;;;;;;;37.22;18.05;;;3.10;95.80;;;;;;5066436;28;20082;-76
2021/01/03 00:28:41;;;;;;;28.08;15.25;;;3.10;95.90;;;;;;5069730;28;20025;-76
2021/01/03 00:31:06;;;;;;;31.27;15.60;;;3.10;95.90;;;;;;5053529;28;20120;-76
2021/01/03 00:33:32;;;;;;;30.20;15.90;;;3.10;95.90;;;;;;5053229;28;20455;-76
2021/01/03 00:35:57;;;;;;;34.33;16.08;;;3.10;96.00;;;;;;5064800;28;20025;-76
2021/01/03 00:38:23;;;;;;;26.45;14.48;;;3.10;95.90;;;;;;5072611;28;20127;-76
2021/01/03 00:40:49;;;;;;;33.58;15.25;;;3.10;95.90;;;;;;5061333;28;20037;-76
2021/01/03 00:43:15;;;;;;;28.67;14.93;;;3.10;95.90;;;;;;5052868;28;20108;-76
2021/01/03 00:45:41;;;;;;;32.33;15.13;;;3.20;96.00;;;;;;5051660;28;20045;-77
2021/01/03 00:48:09;;;;;;;25.75;14.98;;;3.20;95.90;;;;;;5053100;28;20064;-78
2021/01/03 00:50:34;;;;;;;29.70;15.43;;;3.20;95.80;;;;;;5060175;28;20488;-78
2021/01/03 00:53:00;;;;;;;27.58;14.45;;;3.20;96.00;;;;;;5059905;28;20059;-76
2021/01/03 00:55:25;;;;;;;29.75;14.35;;;3.10;95.90;;;;;;5053855;28;20041;-78
2021/01/03 00:57:51;;;;;;;27.45;15.02;;;3.00;95.90;;;;;;5069267;28;20028;-78
2021/01/03 01:00:26;;;;;;;27.15;13.75;;;3.00;95.80;;;;;;5068498;28;20044;-78
2021/01/03 01:02:52;;;;;;;24.00;13.40;;;3.00;95.80;;;;;;5065810;28;21728;-78
2021/01/03 01:05:20;;;;;;;27.60;14.05;;;3.00;95.80;;;;;;5059663;28;20041;-78
2021/01/03 01:07:45;;;;;;;25.10;13.27;;;3.00;95.70;;;;;;5052000;28;20086;-78
2021/01/03 01:10:15;;;;;;;24.80;12.45;;;3.00;95.70;;;;;;5057303;28;20107;-78
2021/01/03 01:12:40;;;;;;;25.95;14.60;;;2.90;95.80;;;;;;5072164;28;20037;-77
2021/01/03 01:15:10;;;;;;;26.02;15.45;;;2.90;95.90;;;;;;5071246;28;20033;-78
2021/01/03 01:17:36;;;;;;;25.17;13.68;;;2.90;95.80;;;;;;5072387;28;20037;-77
2021/01/03 01:20:02;;;;;;;29.13;14.30;;;2.80;95.80;;;;;;5069326;28;20051;-77
2021/01/03 01:22:28;;;;;;;26.52;13.40;;;2.80;96.00;;;;;;5053830;28;20040;-78
2021/01/03 01:24:53;;;;;;;25.35;13.38;;;2.80;95.90;;;;;;5074555;28;20028;-78
2021/01/03 01:27:19;;;;;;;28.10;14.52;;;2.80;96.00;;;;;;5079854;28;20040;-78
2021/01/03 01:29:44;;;;;;;28.83;15.30;;;2.80;95.90;;;;;;5068977;28;20120;-79
2021/01/03 01:32:10;;;;;;;22.63;13.52;;;2.80;96.10;;;;;;5080898;28;20104;-79
2021/01/03 01:34:35;;;;;;;27.38;14.35;;;2.80;95.90;;;;;;5056606;28;20029;-77
2021/01/03 01:37:01;;;;;;;29.33;15.02;;;2.80;95.90;;;;;;5052407;28;20032;-77
2021/01/03 01:39:26;;;;;;;27.55;15.45;;;2.70;95.90;;;;;;5069180;28;20419;-79
2021/01/03 01:41:52;;;;;;;28.92;14.65;;;2.70;95.90;;;;;;5060726;28;20078;-78
2021/01/03 01:44:17;;;;;;;27.00;14.95;;;2.70;95.90;;;;;;5071327;28;20012;-78
2021/01/03 01:46:56;;;;;;;28.38;14.25;;;2.70;95.90;;;;;;5061385;28;20032;-78
2021/01/03 01:49:22;;;;;;;28.45;15.50;;;2.70;95.90;;;;;;5050959;28;20273;-78
2021/01/03 01:51:50;;;;;;;27.17;13.50;;;2.70;95.80;;;;;;5053115;28;20064;-78
2021/01/03 01:54:23;;;;;;;25.83;14.05;;;2.70;95.80;;;;;;5052211;28;20064;-78
2021/01/03 01:57:01;;;;;;;21.77;13.27;;;2.70;95.80;;;;;;5069261;28;20036;-78
2021/01/03 01:59:54;;;;;;;24.45;12.30;;;2.70;96.00;;;;;;5069964;28;20034;-78
2021/01/03 02:02:36;;;;;;;21.52;11.27;;;2.70;95.70;;;;;;5050419;28;20049;-78
2021/01/03 02:05:14;;;;;;;25.38;11.70;;;2.70;95.60;;;;;;5052312;28;20033;-79
2021/01/03 02:07:55;;;;;;;25.58;11.82;;;2.70;95.50;;;;;;5052147;28;20037;-78
2021/01/03 02:10:44;;;;;;;22.75;11.77;;;2.70;95.50;;;;;;5051426;28;20029;-78
2021/01/03 02:13:32;;;;;;;24.48;13.27;;;2.70;95.50;;;;;;5052127;28;20028;-78
2021/01/03 02:16:06;;;;;;;24.73;11.57;;;2.80;95.50;;;;;;5059196;28;20048;-76
2021/01/03 02:18:32;;;;;;;21.05;10.77;;;2.70;95.40;;;;;;5051669;28;20029;-76
2021/01/03 02:21:23;;;;;;;22.13;11.88;;;2.70;95.50;;;;;;5060620;28;20047;-77
2021/01/03 02:24:08;;;;;;;23.77;12.50;;;2.70;95.50;;;;;;5070497;28;20043;-76
2021/01/03 02:26:36;;;;;;;21.20;11.35;;;2.70;95.40;;;;;;5066642;28;20027;-76
2021/01/03 02:29:04;;;;;;;25.50;11.25;;;2.70;95.40;;;;;;5080714;28;20036;-76
2021/01/03 02:31:35;;;;;;;23.77;11.93;;;2.70;95.40;;;;;;5064088;28;20032;-76
2021/01/03 02:34:05;;;;;;;22.02;10.57;;;2.70;95.50;;;;;;5071106;28;20274;-77
2021/01/03 02:36:37;;;;;;;23.45;11.65;;;2.80;95.50;;;;;;5069634;28;20032;-77
2021/01/03 02:39:11;;;;;;;20.38;9.98;;;2.80;95.50;;;;;;5069199;28;20059;-77
2021/01/03 02:41:37;;;;;;;20.98;10.13;;;2.80;95.40;;;;;;5054342;28;20060;-77
2021/01/03 02:44:03;;;;;;;20.90;10.30;;;2.90;95.40;;;;;;5049910;28;20128;-76
2021/01/03 02:46:28;;;;;;;21.70;10.95;;;2.80;95.30;;;;;;5051259;28;20063;-77
2021/01/03 02:48:54;;;;;;;20.52;11.05;;;2.80;95.30;;;;;;5051795;28;20025;-77
2021/01/03 02:51:22;;;;;;;19.50;10.63;;;2.90;95.40;;;;;;5050187;28;20029;-77
2021/01/03 02:53:47;;;;;;;19.98;10.05;;;2.80;95.30;;;;;;5057843;28;20408;-70
2021/01/03 02:56:13;;;;;;;18.58;9.43;;;2.90;95.30;;;;;;5064202;28;20033;-77
2021/01/03 02:58:38;;;;;;;20.73;9.73;;;2.90;95.20;;;;;;5061960;28;20045;-77
2021/01/03 03:01:04;;;;;;;18.65;10.25;;;2.90;95.20;;;;;;5051346;28;20128;-77
2021/01/03 03:03:29;;;;;;;16.27;9.23;;;3.00;95.10;;;;;;5051166;28;20036;-78
2021/01/03 03:05:55;;;;;;;22.50;9.60;;;2.90;95.10;;;;;;5060020;28;20368;-77
2021/01/03 03:08:20;;;;;;;17.45;9.75;;;3.00;95.10;;;;;;5058425;28;20283;-77
2021/01/03 03:10:46;;;;;;;18.35;10.07;;;2.90;95.10;;;;;;5050766;28;20025;-77
2021/01/03 03:13:11;;;;;;;18.02;9.60;;;2.90;95.10;;;;;;5051302;28;20485;-77
2021/01/03 03:15:37;;;;;;;23.23;11.02;;;2.90;95.30;;;;;;5056153;28;20071;-77
2021/01/03 03:18:03;;;;;;;20.85;9.85;;;3.00;95.10;;;;;;5066576;28;20049;-78
2021/01/03 03:20:29;;;;;;;19.50;10.32;;;2.90;95.10;;;;;;5053703;28;20066;-78
2021/01/03 03:22:54;;;;;;;20.35;9.60;;;2.90;95.30;;;;;;5064382;28;20052;-78
2021/01/03 03:25:21;;;;;;;17.95;10.10;;;2.90;95.10;;;;;;5066268;28;20031;-78
2021/01/03 03:27:47;;;;;;;18.05;10.00;;;2.90;95.10;;;;;;5084172;28;20021;-78
2021/01/03 03:30:16;;;;;;;19.50;10.45;;;2.90;95.10;;;;;;5078725;28;20040;-79
2021/01/03 03:32:41;;;;;;;19.42;9.82;;;2.90;95.20;;;;;;5064527;28;20021;-78
2021/01/03 03:35:09;;;;;;;19.15;10.57;;;2.90;95.00;;;;;;5064703;28;20040;-79
2021/01/03 03:37:34;;;;;;;18.10;9.43;;;2.90;95.20;;;;;;5062861;28;20039;-79
2021/01/03 03:40:00;;;;;;;17.67;10.15;;;2.90;95.00;;;;;;5057850;28;20482;-79
2021/01/03 03:42:30;;;;;;;19.15;8.85;;;2.90;95.00;;;;;;5056228;28;20035;-78
2021/01/03 03:44:57;;;;;;;17.80;9.18;;;2.90;94.90;;;;;;5073024;28;20028;-79
2021/01/03 03:47:27;;;;;;;15.65;8.45;;;2.90;94.90;;;;;;5075362;28;20059;-79
2021/01/03 03:49:53;;;;;;;16.52;8.70;;;3.00;94.90;;;;;;5060257;28;20048;-79
2021/01/03 03:52:18;;;;;;;19.95;9.80;;;3.00;94.80;;;;;;5059762;28;20033;-79
2021/01/03 03:54:44;;;;;;;14.20;7.57;;;3.10;94.80;;;;;;5050080;28;20052;-78
2021/01/03 03:57:09;;;;;;;14.77;7.90;;;3.00;94.80;;;;;;5055775;28;20446;-79
2021/01/03 03:59:38;;;;;;;14.02;7.93;;;2.90;94.70;;;;;;5062048;28;20024;-79
2021/01/03 04:02:03;;;;;;;14.40;7.90;;;2.90;94.70;;;;;;5060360;28;20017;-78
2021/01/03 04:04:29;;;;;;;12.63;7.45;;;3.00;94.60;;;;;;5069858;28;20124;-78
2021/01/03 04:06:55;;;;;;;15.85;7.10;;;3.00;94.60;;;;;;5086095;28;20414;-78
2021/01/03 04:09:21;;;;;;;13.25;7.47;;;3.00;94.60;;;;;;5062575;28;20112;-79
2021/01/03 04:11:49;;;;;;;15.20;8.02;;;3.00;94.50;;;;;;5073041;28;20141;-79
2021/01/03 04:14:19;;;;;;;12.82;6.97;;;3.00;94.50;;;;;;5064259;28;20163;-78
2021/01/03 04:16:58;;;;;;;13.70;7.85;;;3.00;94.70;;;;;;5069450;28;20028;-78
2021/01/03 04:19:24;;;;;;;14.23;8.07;;;3.00;94.50;;;;;;5073302;28;20051;-78
2021/01/03 04:21:52;;;;;;;15.15;8.48;;;3.00;94.60;;;;;;5056216;28;20044;-77
2021/01/03 04:24:18;;;;;;;12.57;7.30;;;3.00;94.80;;;;;;5053929;28;20033;-77
2021/01/03 04:26:48;;;;;;;16.00;8.07;;;3.00;94.60;;;;;;5068882;28;20027;-77
2021/01/03 04:29:13;;;;;;;17.27;9.10;;;3.00;94.70;;;;;;5063329;28;20037;-77
2021/01/03 04:31:39;;;;;;;12.82;8.48;;;3.00;94.70;;;;;;5068970;28;20024;-78
2021/01/03 04:34:04;;;;;;;12.20;6.60;;;2.90;94.80;;;;;;5062376;28;20380;-78
2021/01/03 04:36:30;;;;;;;15.30;8.93;;;2.90;94.80;;;;;;5067185;28;20029;-77
2021/01/03 04:38:55;;;;;;;14.80;7.95;;;3.00;94.80;;;;;;5059234;28;20032;-77
2021/01/03 04:41:30;;;;;;;14.30;7.40;;;2.90;94.80;;;;;;5065487;28;20441;-78
2021/01/03 04:44:00;;;;;;;14.93;8.13;;;2.90;94.80;;;;;;5072916;28;20037;-77
2021/01/03 04:46:31;;;;;;;15.90;8.40;;;2.90;94.90;;;;;;5058583;28;20036;-77
2021/01/03 04:48:59;;;;;;;13.73;7.47;;;2.90;94.90;;;;;;5053848;28;20033;-77
2021/01/03 04:51:33;;;;;;;13.00;7.18;;;2.90;94.90;;;;;;5065429;28;20036;-77
2021/01/03 04:54:17;;;;;;;14.00;7.53;;;3.00;94.90;;;;;;5073556;28;20052;-77
2021/01/03 04:56:42;;;;;;;13.15;7.32;;;3.00;95.00;;;;;;5054530;28;20045;-77
2021/01/03 04:59:27;;;;;;;10.88;6.75;;;3.00;95.00;;;;;;5057084;28;20036;-78
2021/01/03 05:02:25;;;;;;;12.75;7.85;;;3.00;94.90;;;;;;5070993;28;20040;-78
2021/01/03 05:05:15;;;;;;;12.15;6.90;;;3.00;95.00;;;;;;5070464;28;20040;-78
2021/01/03 05:07:45;;;;;;;15.05;7.90;;;3.00;95.20;;;;;;5053258;28;20033;-78
2021/01/03 05:10:22;;;;;;;13.70;7.53;;;2.90;95.30;;;;;;5054516;28;20055;-78
2021/01/03 05:12:58;;;;;;;11.63;7.00;;;2.90;95.30;;;;;;5070880;28;20032;-78
2021/01/03 05:15:27;;;;;;;15.73;7.63;;;2.90;95.50;;;;;;5067524;28;20033;-77
2021/01/03 05:17:54;;;;;;;15.70;8.35;;;2.90;95.70;;;;;;5053345;28;20063;-78
2021/01/03 05:20:19;;;;;;;17.98;8.55;;;2.90;95.90;;;;;;5053311;28;20330;-78
2021/01/03 05:22:45;;;;;;;14.63;8.05;;;2.90;96.10;;;;;;5054698;28;20040;-77
2021/01/03 05:25:16;;;;;;;15.57;8.45;;;2.80;96.20;;;;;;5053675;28;20400;-77
2021/01/03 05:27:42;;;;;;;15.93;8.68;;;2.80;96.50;;;;;;5053018;28;20346;-77
2021/01/03 05:30:26;;;;;;;14.98;8.07;;;2.80;96.60;;;;;;5051666;28;20499;-77
2021/01/03 05:32:52;;;;;;;18.13;8.93;;;2.80;96.70;;;;;;5052722;28;20083;-78
2021/01/03 05:35:20;;;;;;;17.75;9.90;;;2.80;96.50;;;;;;5056416;28;20055;-78
2021/01/03 05:37:47;;;;;;;18.85;9.57;;;2.70;96.90;;;;;;5067038;28;20025;-77
2021/01/03 05:40:26;;;;;;;20.42;10.02;;;2.70;97.30;;;;;;5052607;28;20044;-76
2021/01/03 05:43:13;;;;;;;16.23;8.63;;;2.70;97.30;;;;;;5068514;28;20009;-77
2021/01/03 05:45:46;;;;;;;19.33;10.05;;;2.70;97.50;;;;;;5086963;28;20025;-77
2021/01/03 05:48:21;;;;;;;17.88;9.80;;;2.70;97.50;;;;;;5085864;28;20024;-78
2021/01/03 05:50:47;;;;;;;17.83;8.75;;;2.60;97.60;;;;;;5078129;28;20453;-77
2021/01/03 05:53:20;;;;;;;19.55;10.63;;;2.60;97.80;;;;;;5063990;28;20112;-78
2021/01/03 05:55:58;;;;;;;16.83;9.57;;;2.60;97.90;;;;;;5060075;28;20115;-78
2021/01/03 05:58:34;;;;;;;18.42;10.02;;;2.60;98.10;;;;;;5055456;28;20051;-79
2021/01/03 06:01:20;;;;;;;16.33;9.05;;;2.60;98.10;;;;;;5052350;28;20363;-78
2021/01/03 06:04:19;;;;;;;18.67;10.32;;;2.60;98.20;;;;;;5052538;28;20021;-79
2021/01/03 06:06:51;;;;;;;19.40;9.30;;;2.50;98.50;;;;;;5066762;28;20439;-77
2021/01/03 06:09:22;;;;;;;17.25;9.13;;;2.50;98.40;;;;;;5071944;28;20082;-77
2021/01/03 06:12:07;;;;;;;16.10;9.52;;;2.50;98.50;;;;;;5061758;28;20538;-77
2021/01/03 06:14:35;;;;;;;17.52;9.10;;;2.50;98.70;;;;;;5080006;28;20040;-77
2021/01/03 06:17:13;;;;;;;18.65;10.93;;;2.50;98.50;;;;;;5068811;28;20476;-77
2021/01/03 06:19:49;;;;;;;16.08;8.32;;;2.50;98.40;;;;;;5050759;28;20313;-77
2021/01/03 06:22:38;;;;;;;15.25;8.38;;;2.50;98.80;;;;;;5068649;28;20505;-78
2021/01/03 06:25:18;;;;;;;16.30;8.90;;;2.50;98.60;;;;;;5068731;28;20032;-76
2021/01/03 06:27:47;;;;;;;17.48;9.77;;;2.50;98.90;;;;;;5052100;28;20504;-76
2021/01/03 06:30:14;;;;;;;15.48;9.23;;;2.50;98.90;;;;;;5054623;28;20039;-76
2021/01/03 06:32:59;;;;;;;15.07;8.63;;;2.60;98.80;;;;;;5049871;28;20033;-76
2021/01/03 06:35:46;;;;;;;18.73;9.07;;;2.60;99.00;;;;;;5050986;28;20059;-76
2021/01/03 06:38:30;;;;;;;17.38;9.32;;;2.60;98.90;;;;;;5050728;28;20511;-77
2021/01/03 06:41:03;;;;;;;15.45;8.43;;;2.50;99.00;;;;;;5059885;28;20040;-78
2021/01/03 06:43:44;;;;;;;14.82;7.45;;;2.50;98.80;;;;;;5069596;28;20601;-78
2021/01/03 06:46:37;;;;;;;15.07;9.30;;;2.50;99.00;;;;;;5051362;28;20114;-78
2021/01/03 06:49:27;;;;;;;13.68;7.55;;;2.60;99.00;;;;;;5051891;28;20095;-77
2021/01/03 06:52:12;;;;;;;15.40;8.15;;;2.60;98.90;;;;;;5052145;28;20052;-78
2021/01/03 06:55:08;;;;;;;19.48;9.98;;;2.50;98.80;;;;;;5051645;28;20116;-79
2021/01/03 06:57:56;;;;;;;17.00;10.05;;;2.50;98.90;;;;;;5052044;28;20128;-78
2021/01/03 07:00:36;;;;;;;15.07;8.48;;;2.60;98.80;;;;;;5065775;28;20045;-79
2021/01/03 07:03:14;;;;;;;17.10;9.15;;;2.60;98.80;;;;;;5058411;28;20033;-79
2021/01/03 07:06:00;;;;;;;19.95;8.57;;;2.60;98.90;;;;;;5072441;28;20028;-79
2021/01/03 07:08:28;;;;;;;13.55;7.72;;;2.50;99.00;;;;;;5072193;28;20054;-79
2021/01/03 07:10:54;;;;;;;13.20;8.02;;;2.60;99.00;;;;;;5059710;28;20059;-79
2021/01/03 07:13:29;;;;;;;19.02;8.93;;;2.50;99.20;;;;;;5072559;28;20052;-79
2021/01/03 07:15:57;;;;;;;17.02;8.77;;;2.50;99.10;;;;;;5064449;28;20028;-78
2021/01/03 07:18:28;;;;;;;18.23;9.00;;;2.50;99.20;;;;;;5077225;28;20396;-78
2021/01/03 07:20:57;;;;;;;20.23;9.52;;;2.50;99.10;;;;;;5076854;28;20036;-78
2021/01/03 07:23:38;;;;;;;18.10;9.65;;;2.50;99.20;;;;;;5059018;28;20124;-78
2021/01/03 07:26:29;;;;;;;18.45;9.52;;;2.50;99.40;;;;;;5068780;28;20032;-79
2021/01/03 07:29:08;;;;;;;13.98;8.05;;;2.50;99.40;;;;;;5057693;28;20035;-77
2021/01/03 07:31:49;;;;;;;19.58;8.93;;;2.50;99.30;;;;;;5058340;28;20041;-77
2021/01/03 07:34:28;;;;;;;18.73;9.07;;;2.50;99.20;;;;;;5058142;28;20033;-77
2021/01/03 07:36:58;;;;;;;16.67;9.63;;;2.60;99.20;;;;;;5074306;28;20047;-78
2021/01/03 07:39:31;;;;;;;17.02;10.25;;;2.60;99.20;;;;;;5060183;28;20491;-77
2021/01/03 07:42:18;;;;;;;19.10;9.18;;;2.60;99.20;;;;;;5063138;28;20082;-77
2021/01/03 07:44:44;;;;;;;15.93;9.70;;;2.60;99.30;;;;;;5076790;28;20067;-77
2021/01/03 07:47:09;;;;;;;19.90;10.70;;;2.50;99.40;;;;;;5059188;28;20040;-79
2021/01/03 07:49:37;;;;;;;18.38;10.82;;;2.50;99.40;;;;;;5057386;28;20020;-76
2021/01/03 07:52:29;;;;;;;19.05;10.00;;;2.60;99.40;;;;;;5074837;28;20480;-75
2021/01/03 07:54:56;;;;;;;17.83;10.25;;;2.60;99.30;;;;;;5071939;28;20067;-74
2021/01/03 07:57:26;;;;;;;18.85;11.05;;;2.60;99.50;;;;;;5058006;28;20064;-75
2021/01/03 07:59:57;;;;;;;19.70;9.82;;;2.60;99.40;;;;;;5057350;28;20037;-74
2021/01/03 08:02:27;;;;;;;19.40;9.95;;;2.60;99.40;;;;;;5077146;28;20031;-75
2021/01/03 08:04:59;;;;;;;21.58;10.80;;;2.60;99.40;;;;;;5070884;28;20052;-75
2021/01/03 08:07:25;;;;;;;19.23;10.00;;;2.60;99.40;;;;;;5077724;28;20035;-76
2021/01/03 08:09:51;;;;;;;17.88;9.35;;;2.60;99.60;;;;;;5071680;28;20025;-75
2021/01/03 08:12:29;;;;;;;18.65;9.10;;;2.60;99.60;;;;;;5058612;28;20036;-75
2021/01/03 08:15:06;;;;;;;20.88;10.43;;;2.60;99.80;;;;;;5068907;28;20021;-74
2021/01/03 08:17:37;;;;;;;21.45;10.85;;;2.60;99.90;;;;;;5074408;28;20036;-74
2021/01/03 08:20:05;;;;;;;19.83;10.07;;;2.60;99.80;;;;;;5070954;28;20522;-74
2021/01/03 08:22:31;;;;;;;18.98;9.77;;;2.60;99.80;;;;;;5054241;28;20033;-75
2021/01/03 08:24:59;;;;;;;18.63;10.52;;;2.60;99.90;;;;;;5057819;28;20107;-73
2021/01/03 08:27:33;;;;;;;18.35;9.85;;;2.60;99.90;;;;;;5054176;28;20028;-74
2021/01/03 08:30:09;;;;;;;16.02;8.77;;;2.60;99.90;;;;;;5056361;28;20033;-70
2021/01/03 08:32:38;;;;;;;20.35;10.88;;;2.60;99.90;;;;;;5067274;28;20028;-79
2021/01/03 08:35:09;;;;;;;15.18;9.05;;;2.60;99.90;;;;;;5056005;28;20044;-74
2021/01/03 08:37:41;;;;;;;16.63;9.68;;;2.60;99.90;;;;;;5064267;28;20103;-74
2021/01/03 08:40:36;;;;;;;17.42;9.85;;;2.50;99.90;;;;;;5075283;28;20036;-74
2021/01/03 08:43:09;;;;;;;18.30;9.57;;;2.50;99.90;;;;;;5058991;28;20068;-74
2021/01/03 08:45:42;;;;;;;18.67;9.52;;;2.50;99.90;;;;;;5065240;28;20021;-74
2021/01/03 08:48:16;;;;;;;18.63;9.80;;;2.50;99.90;;;;;;5053732;28;20078;-75
2021/01/03 08:50:42;;;;;;;18.63;10.80;;;2.50;99.90;;;;;;5053819;28;20372;-75
2021/01/03 08:53:23;;;;;;;15.75;9.27;;;2.50;99.90;;;;;;5059463;28;20108;-75
2021/01/03 08:55:50;;;;;;;18.38;9.63;;;2.50;99.90;;;;;;5065144;28;20037;-75
2021/01/03 08:58:19;;;;;;;19.05;9.88;;;2.50;99.90;;;;;;5054597;28;20032;-75
2021/01/03 09:00:49;;;;;;;15.77;10.07;;;2.50;99.90;;;;;;5062570;28;20040;-75
2021/01/03 09:03:20;;;;;;;18.67;9.70;;;2.50;99.90;;;;;;5073505;28;20028;-75
2021/01/03 09:05:48;;;;;;;20.13;10.65;;;2.40;99.90;;;;;;5071023;28;20132;-75
2021/01/03 09:08:24;;;;;;;19.80;10.55;;;2.40;99.90;;;;;;5072056;28;20031;-75
2021/01/03 09:10:51;;;;;;;18.75;11.32;;;2.40;99.90;;;;;;5071185;28;20025;-74
2021/01/03 09:13:26;;;;;;;19.65;9.90;;;2.30;99.90;;;;;;5073232;28;20028;-74
2021/01/03 09:16:33;;;;;;;19.33;9.32;;;2.30;99.90;;;;;;5070060;28;20085;-74
2021/01/03 09:19:26;;;;;;;15.98;8.70;;;2.30;99.90;;;;;;5051567;28;20098;-74
2021/01/03 09:21:55;;;;;;;16.70;8.88;;;2.30;99.90;;;;;;5056326;28;20043;-74
2021/01/03 09:24:27;;;;;;;18.65;9.88;;;2.30;99.90;;;;;;5052388;28;20041;-74
2021/01/03 09:26:55;;;;;;;18.23;9.50;;;2.30;99.90;;;;;;5069036;28;20062;-74
2021/01/03 09:29:40;;;;;;;19.48;9.88;;;2.30;99.90;;;;;;5072760;28;20043;-74
2021/01/03 09:32:24;;;;;;;17.33;9.18;;;2.30;99.90;;;;;;5052164;28;20036;-74
2021/01/03 09:35:07;;;;;;;16.55;8.23;;;2.30;99.90;;;;;;5051434;28;20037;-74
2021/01/03 09:37:36;;;;;;;16.33;7.95;;;2.30;99.90;;;;;;5062696;28;20389;-72
2021/01/03 09:40:02;;;;;;;17.10;9.57;;;2.30;99.90;;;;;;5065397;28;20045;-72
2021/01/03 09:42:59;;;;;;;13.98;7.95;;;2.30;99.90;;;;;;5050760;28;20109;-72
2021/01/03 09:45:49;;;;;;;17.73;9.25;;;2.30;99.90;;;;;;5055864;28;20122;-70
2021/01/03 09:48:39;;;;;;;13.52;8.30;;;2.30;99.90;;;;;;5052043;28;20112;-71
2021/01/03 09:51:27;;;;;;;16.27;8.30;;;2.30;99.90;;;;;;5052451;28;20021;-73
2021/01/03 09:54:07;;;;;;;16.77;9.30;;;2.20;99.90;;;;;;5052244;28;20394;-72
2021/01/03 09:56:37;;;;;;;14.68;8.52;;;2.20;99.90;;;;;;5053221;28;20029;-72
2021/01/03 09:59:14;;;;;;;17.90;8.38;;;2.30;99.90;;;;;;5052404;28;20497;-72
2021/01/03 10:01:41;;;;;;;18.00;9.45;;;2.30;99.90;;;;;;5052448;28;20090;-72
2021/01/03 10:04:29;;;;;;;15.45;8.85;;;2.30;99.90;;;;;;5051597;28;20021;-73
2021/01/03 10:07:08;;;;;;;13.57;7.70;;;2.30;99.90;;;;;;5054515;28;20069;-72
2021/01/03 10:09:34;;;;;;;14.82;8.63;;;2.30;99.90;;;;;;5051950;28;20075;-72
2021/01/03 10:12:35;;;;;;;16.20;8.32;;;2.20;99.90;;;;;;5050952;28;20024;-72
2021/01/03 10:15:06;;;;;;;14.35;8.35;;;2.30;99.90;;;;;;5052163;28;20112;-72
2021/01/03 10:17:33;;;;;;;16.17;8.45;;;2.30;99.90;;;;;;5051675;28;20036;-72
2021/01/03 10:19:58;;;;;;;13.57;7.65;;;2.20;99.90;;;;;;5052183;28;20057;-71
2021/01/03 10:22:26;;;;;;;12.75;7.75;;;2.20;99.90;;;;;;5051714;28;20060;-71
2021/01/03 10:25:01;;;;;;;13.63;7.38;;;2.20;99.90;;;;;;5052085;28;20355;-71
2021/01/03 10:27:28;;;;;;;15.13;8.50;;;2.20;99.90;;;;;;5057812;28;20116;-71
2021/01/03 10:29:53;;;;;;;14.93;8.48;;;2.20;99.90;;;;;;5067794;28;20032;-70
2021/01/03 10:32:19;;;;;;;14.18;8.05;;;2.10;99.90;;;;;;5070232;28;20077;-70
2021/01/03 10:34:44;;;;;;;12.63;7.43;;;2.10;99.90;;;;;;5055955;28;20041;-70
2021/01/03 10:37:10;;;;;;;19.50;9.93;;;2.20;99.90;;;;;;5069903;28;20028;-70
2021/01/03 10:39:35;;;;;;;19.27;8.63;;;2.20;99.90;;;;;;5066542;28;20037;-72
2021/01/03 10:42:03;;;;;;;14.02;7.88;;;2.20;99.90;;;;;;5066260;28;20036;-71
2021/01/03 10:44:29;;;;;;;14.55;8.55;;;2.20;99.90;;;;;;5069188;28;20036;-71
2021/01/03 10:46:55;;;;;;;15.80;8.98;;;2.20;99.90;;;;;;5052181;28;20044;-71
2021/01/03 10:49:21;;;;;;;16.27;9.70;;;2.20;99.90;;;;;;5050454;28;20083;-71
2021/01/03 10:51:47;;;;;;;11.32;6.93;;;2.30;99.90;;;;;;5053841;28;20033;-71
2021/01/03 10:54:19;;;;;;;14.07;8.60;;;2.30;99.90;;;;;;5051214;28;20075;-71
2021/01/03 10:56:52;;;;;;;14.98;8.30;;;2.30;99.90;;;;;;5066868;28;20445;-71
2021/01/03 10:59:19;;;;;;;14.90;8.02;;;2.30;99.90;;;;;;5068707;28;20067;-71
2021/01/03 11:01:45;;;;;;;17.92;9.80;;;2.30;99.90;;;;;;5053757;28;20062;-70
2021/01/03 11:04:12;;;;;;;14.10;7.97;;;2.30;99.90;;;;;;5051497;28;20545;-71
2021/01/03 11:06:41;;;;;;;15.30;8.25;;;2.30;99.90;;;;;;5069154;28;20511;-70
2021/01/03 11:09:08;;;;;;;15.02;9.52;;;2.30;99.90;;;;;;5069741;28;20034;-70
2021/01/03 11:11:34;;;;;;;17.60;8.68;;;2.40;99.90;;;;;;5057496;28;20028;-71
2021/01/03 11:13:59;;;;;;;13.65;8.27;;;2.40;99.90;;;;;;5070286;28;20025;-71
2021/01/03 11:16:33;;;;;;;14.93;8.60;;;2.40;99.90;;;;;;5063980;28;20036;-70
2021/01/03 11:18:58;;;;;;;16.58;8.00;;;2.40;99.90;;;;;;5070686;28;20025;-70
2021/01/03 11:21:24;;;;;;;12.02;7.82;;;2.40;99.90;;;;;;5057392;28;20044;-71
2021/01/03 11:23:49;;;;;;;12.40;8.32;;;2.50;99.90;;;;;;5054058;28;20477;-72
2021/01/03 11:26:15;;;;;;;14.38;8.02;;;2.50;99.90;;;;;;5061449;28;20033;-72
2021/01/03 11:28:41;;;;;;;10.98;6.95;;;2.50;99.90;;;;;;5059915;28;20116;-72
2021/01/03 11:31:06;;;;;;;12.05;7.45;;;2.50;99.90;;;;;;5052928;28;20025;-72
2021/01/03 11:33:32;;;;;;;12.65;7.10;;;2.50;99.90;;;;;;5051013;28;20025;-71
2021/01/03 11:35:58;;;;;;;12.38;7.38;;;2.50;99.90;;;;;;5057876;28;20029;-71
2021/01/03 11:38:23;;;;;;;10.57;7.18;;;2.50;99.90;;;;;;5066041;28;20056;-71
2021/01/03 11:40:49;;;;;;;12.70;7.15;;;2.50;99.90;;;;;;5057840;28;20398;-70
2021/01/03 11:43:14;;;;;;;13.93;7.00;;;2.50;99.90;;;;;;5050985;28;20029;-71
2021/01/03 11:45:40;;;;;;;10.27;6.20;;;2.50;99.90;;;;;;5059791;28;20649;-71
2021/01/03 11:48:05;;;;;;;10.68;6.13;;;2.60;99.90;;;;;;5051787;28;20029;-70
2021/01/03 11:50:31;;;;;;;11.18;5.93;;;2.60;99.90;;;;;;5055359;28;20603;-70
2021/01/03 11:52:58;;;;;;;10.30;6.13;;;2.60;99.90;;;;;;5054508;28;20033;-70
2021/01/03 11:55:23;;;;;;;11.70;7.10;;;2.60;99.90;;;;;;5053495;28;20074;-71
2021/01/03 11:57:49;;;;;;;8.70;6.15;;;2.70;99.90;;;;;;5054712;28;20471;-70
2021/01/03 12:00:16;;;;;;;10.48;6.43;;;2.70;99.90;;;;;;5053882;28;20040;-70
2021/01/03 12:02:42;;;;;;;11.40;6.32;;;2.70;99.90;;;;;;5054277;28;20071;-70
2021/01/03 12:05:09;;;;;;;11.98;6.78;;;2.70;99.90;;;;;;5056303;28;20066;-70
2021/01/03 12:07:34;;;;;;;9.60;6.25;;;2.70;99.90;;;;;;5066483;28;20070;-71
2021/01/03 12:10:00;;;;;;;10.85;6.28;;;2.70;99.90;;;;;;5053527;28;20443;-71
2021/01/03 12:12:25;;;;;;;10.52;6.13;;;2.70;99.90;;;;;;5068058;28;20061;-71
2021/01/03 12:14:51;;;;;;;11.10;5.97;;;2.70;99.90;;;;;;5068258;28;20145;-71
2021/01/03 12:17:20;;;;;;;9.02;5.75;;;2.70;99.90;;;;;;5072019;28;20021;-72
2021/01/03 12:19:48;;;;;;;10.15;5.70;;;2.70;99.90;;;;;;5053922;28;20025;-72
2021/01/03 12:22:14;;;;;;;8.27;5.10;;;2.70;99.90;;;;;;5067278;28;20040;-71
2021/01/03 12:24:39;;;;;;;9.77;5.60;;;2.70;99.90;;;;;;5073870;28;20020;-71
2021/01/03 12:27:08;;;;;;;7.28;5.15;;;2.70;99.90;;;;;;5058859;28;20032;-71
2021/01/03 12:29:34;;;;;;;7.88;5.30;;;2.60;99.90;;;;;;5054539;28;20563;-71
2021/01/03 12:32:05;;;;;;;9.70;5.32;;;2.60;99.90;;;;;;5052642;28;20631;-72
2021/01/03 12:34:31;;;;;;;8.40;5.07;;;2.70;99.90;;;;;;5053308;28;20032;-72
2021/01/03 12:37:01;;;;;;;10.43;5.50;;;2.70;99.90;;;;;;5070161;28;20107;-72
2021/01/03 12:39:26;;;;;;;9.45;5.30;;;2.70;99.90;;;;;;5055097;28;20033;-72
2021/01/03 12:41:52;;;;;;;10.30;5.50;;;2.70;99.90;;;;;;5056786;28;20041;-71
2021/01/03 12:44:18;;;;;;;9.45;5.47;;;2.70;99.90;;;;;;5053937;28;20028;-72
2021/01/03 12:46:43;;;;;;;7.68;5.22;;;2.70;99.90;;;;;;5057742;28;20469;-73
2021/01/03 12:49:11;;;;;;;9.20;5.25;;;2.70;99.90;;;;;;5053993;28;20021;-72
2021/01/03 12:51:36;;;;;;;10.15;5.70;;;2.70;99.90;;;;;;5067933;28;20024;-73
2021/01/03 12:54:02;;;;;;;10.27;5.85;;;2.80;99.90;;;;;;5073675;28;20051;-73
2021/01/03 12:56:29;;;;;;;8.23;5.22;;;2.70;99.90;;;;;;5056351;28;20171;-73
2021/01/03 12:59:00;;;;;;;10.48;5.55;;;2.70;99.90;;;;;;5051029;28;20052;-74
2021/01/03 13:01:29;;;;;;;8.88;5.13;;;2.80;99.90;;;;;;5051957;28;20171;-74
2021/01/03 13:03:56;;;;;;;7.63;4.65;;;2.80;99.90;;;;;;5072879;28;20484;-74